createdAt,value
2018-03-08T05:00:39.127Z,91.09
2018-03-08T05:01:04.623Z,90.81
2018-03-08T05:01:30.150Z,90.9
2018-03-08T05:02:44.937Z,90.9
2018-03-08T05:03:10.420Z,90.81
2018-03-08T05:03:35.889Z,91.28
2018-03-08T05:04:01.355Z,91.09
2018-03-08T05:04:26.831Z,90.9
2018-03-08T05:04:52.311Z,91.09
2018-03-08T05:05:17.878Z,91.09
2018-03-08T05:05:43.299Z,90.9
2018-03-08T05:06:08.823Z,91.09
2018-03-08T05:06:34.281Z,90.9
2018-03-08T05:06:59.785Z,90.9
2018-03-08T05:07:25.209Z,91.09
2018-03-08T05:07:50.674Z,91.19
2018-03-08T05:08:16.187Z,90.9
2018-03-08T05:08:41.634Z,90.81
2018-03-08T05:09:07.139Z,90.71
2018-03-08T05:09:32.611Z,91.09
2018-03-08T05:09:58.044Z,91.09
2018-03-08T05:10:23.508Z,91.09
2018-03-08T05:10:48.986Z,90.81
2018-03-08T05:11:14.433Z,90.9
2018-03-08T05:11:39.906Z,90.71
2018-03-08T05:12:05.381Z,90.9
2018-03-08T05:12:30.847Z,91.09
2018-03-08T05:12:56.521Z,90.81
2018-03-08T05:13:21.993Z,91
2018-03-08T05:13:47.480Z,91.09
2018-03-08T05:14:13.010Z,91.09
2018-03-08T05:14:38.534Z,90.9
2018-03-08T05:15:04.018Z,90.81
2018-03-08T05:15:29.542Z,91.09
2018-03-08T05:15:55.050Z,90.81
2018-03-08T05:17:08.786Z,91.09
2018-03-08T05:17:34.278Z,91.19
2018-03-08T05:17:59.750Z,91.09
2018-03-08T05:18:25.278Z,90.71
2018-03-08T05:18:50.706Z,91.19
2018-03-08T05:19:16.247Z,91.28
2018-03-08T05:19:41.705Z,90.9
2018-03-08T05:20:07.282Z,90.43
2018-03-08T05:20:32.790Z,90.62
2018-03-08T05:20:58.254Z,90.9
2018-03-08T05:21:23.723Z,90.81
2018-03-08T05:21:49.198Z,90.43
2018-03-08T05:22:14.729Z,91.09
2018-03-08T05:22:40.177Z,91.28
2018-03-08T05:23:05.692Z,91.38
2018-03-08T05:23:31.190Z,91.28
2018-03-08T05:23:56.657Z,91.19
2018-03-08T05:24:22.190Z,90.9
2018-03-08T05:24:47.677Z,90.9
2018-03-08T05:25:13.189Z,91.09
2018-03-08T05:25:38.687Z,91.19
2018-03-08T05:26:04.159Z,91.28
2018-03-08T05:26:29.670Z,91.09
2018-03-08T05:26:55.172Z,90.81
2018-03-08T05:27:20.777Z,90.52
2018-03-08T05:27:46.284Z,90.43
2018-03-08T05:28:11.782Z,90.52
2018-03-08T05:28:37.228Z,90.81
2018-03-08T05:29:02.735Z,90.62
2018-03-08T05:29:28.301Z,90.62
2018-03-08T05:29:53.686Z,90.43
2018-03-08T05:30:19.250Z,90.9
2018-03-08T05:30:44.640Z,90.81
2018-03-08T05:31:10.240Z,91.28
2018-03-08T05:31:35.741Z,91.19
2018-03-08T05:32:01.205Z,91.19
2018-03-08T05:32:26.760Z,91.28
2018-03-08T05:32:52.409Z,90.9
2018-03-08T05:33:17.920Z,91.09
2018-03-08T05:33:43.459Z,91.09
2018-03-08T05:34:09.309Z,90.81
2018-03-08T05:34:34.569Z,90.9
2018-03-08T05:35:00.148Z,90.9
2018-03-08T05:35:25.514Z,91.09
2018-03-08T05:35:51.031Z,91.19
2018-03-08T05:36:16.457Z,91.09
2018-03-08T05:36:42.012Z,91.19
2018-03-08T05:37:07.496Z,91.28
2018-03-08T05:37:33.034Z,91.19
2018-03-08T05:37:58.448Z,91.28
2018-03-08T05:38:23.973Z,91.19
2018-03-08T05:38:49.443Z,91.09
2018-03-08T05:39:14.993Z,90.9
2018-03-08T05:39:40.424Z,90.9
2018-03-08T05:40:05.936Z,91.09
2018-03-08T05:40:31.322Z,91.19
2018-03-08T05:40:56.820Z,91.28
2018-03-08T05:41:22.308Z,91.09
2018-03-08T05:41:47.876Z,91.09
2018-03-08T05:42:13.399Z,91.19
2018-03-08T05:42:39.002Z,91.28
2018-03-08T05:43:04.371Z,91.28
2018-03-08T05:43:29.908Z,91.19
2018-03-08T05:43:55.353Z,91.19
2018-03-08T05:44:20.879Z,90.9
2018-03-08T05:44:46.395Z,90.9
2018-03-08T05:45:11.850Z,91.09
2018-03-08T05:45:37.365Z,91.09
2018-03-08T05:46:02.901Z,90.9
2018-03-08T05:46:28.349Z,91.09
2018-03-08T05:46:53.899Z,91.09
2018-03-08T05:47:19.438Z,91.09
2018-03-08T05:47:44.864Z,91
2018-03-08T05:48:10.344Z,90.81
2018-03-08T05:48:35.859Z,90.9
2018-03-08T05:49:01.332Z,91.09
2018-03-08T05:49:26.823Z,90.9
2018-03-08T05:49:52.376Z,91.09
2018-03-08T05:50:17.751Z,91.28
2018-03-08T05:50:43.351Z,91.28
2018-03-08T05:51:08.810Z,90.52
2018-03-08T05:51:34.223Z,90.9
2018-03-08T05:51:59.733Z,90.9
2018-03-08T05:52:25.174Z,91.28
2018-03-08T05:52:50.634Z,90.9
2018-03-08T05:53:16.114Z,90.62
2018-03-08T05:53:41.667Z,90.81
2018-03-08T05:54:07.127Z,90.52
2018-03-08T05:54:32.608Z,90.43
2018-03-08T05:54:58.107Z,90.71
2018-03-08T05:55:23.668Z,90.9
2018-03-08T05:55:49.396Z,90.52
2018-03-08T05:56:15.057Z,90.43
2018-03-08T05:56:40.533Z,90.81
2018-03-08T05:57:05.993Z,91.09
2018-03-08T05:57:31.526Z,91.28
2018-03-08T05:57:57.002Z,91.09
2018-03-08T05:58:22.467Z,91.09
2018-03-08T05:58:47.984Z,91.28
2018-03-08T05:59:13.532Z,90.9
2018-03-08T05:59:38.980Z,90.81
2018-03-08T06:00:04.516Z,90.9
2018-03-08T06:00:29.944Z,91.28
2018-03-08T06:00:55.373Z,91.28
2018-03-08T06:01:20.839Z,91.28
2018-03-08T06:01:46.371Z,91.19
2018-03-08T06:02:11.806Z,91.09
2018-03-08T06:02:37.286Z,90.81
2018-03-08T06:03:02.778Z,90.43
2018-03-08T06:03:28.282Z,90.9
2018-03-08T06:03:53.764Z,90.81
2018-03-08T06:04:19.179Z,91.09
2018-03-08T06:04:44.675Z,91.19
2018-03-08T06:05:10.177Z,90.43
2018-03-08T06:05:35.639Z,90.81
2018-03-08T06:06:01.131Z,90.9
2018-03-08T06:06:26.566Z,90.71
2018-03-08T06:06:52.039Z,90.43
2018-03-08T06:07:17.612Z,90.33
2018-03-08T06:07:42.986Z,90.24
2018-03-08T06:08:08.467Z,90.33
2018-03-08T06:08:33.915Z,90.71
2018-03-08T06:08:59.423Z,90.71
2018-03-08T06:09:24.911Z,90.33
2018-03-08T06:09:50.385Z,90.71
2018-03-08T06:10:15.865Z,90.62
2018-03-08T06:10:41.355Z,90.71
2018-03-08T06:11:06.805Z,90.81
2018-03-08T06:11:32.304Z,90.81
2018-03-08T06:11:57.734Z,90.71
2018-03-08T06:12:23.222Z,90.62
2018-03-08T06:12:48.686Z,90.62
2018-03-08T06:13:14.135Z,90.62
2018-03-08T06:13:39.668Z,90.71
2018-03-08T06:14:05.113Z,90.62
2018-03-08T06:14:30.604Z,90.52
2018-03-08T06:14:56.057Z,90.71
2018-03-08T06:15:21.535Z,90.81
2018-03-08T06:16:15.973Z,90.43
2018-03-08T06:16:41.454Z,90.43
2018-03-08T06:17:06.939Z,90.43
2018-03-08T06:17:32.397Z,90.9
2018-03-08T06:17:57.927Z,90.62
2018-03-08T06:18:23.403Z,90.62
2018-03-08T06:18:48.860Z,90.62
2018-03-08T06:19:14.319Z,90.52
2018-03-08T06:19:39.809Z,90.62
2018-03-08T06:20:05.306Z,90.62
2018-03-08T06:20:30.738Z,90.71
2018-03-08T06:20:56.224Z,90.9
2018-03-08T06:21:21.696Z,91.28
2018-03-08T06:21:47.200Z,90.81
2018-03-08T06:22:12.653Z,90.71
2018-03-08T06:22:38.154Z,90.62
2018-03-08T06:23:03.632Z,90.62
2018-03-08T06:23:29.056Z,90.71
2018-03-08T06:23:54.526Z,90.62
2018-03-08T06:24:19.998Z,91.19
2018-03-08T06:24:45.477Z,91.09
2018-03-08T06:25:10.960Z,91.09
2018-03-08T06:25:36.398Z,91.38
2018-03-08T06:26:01.855Z,91.28
2018-03-08T06:26:27.305Z,91.09
2018-03-08T06:26:52.774Z,91.19
2018-03-08T06:27:18.263Z,91.28
2018-03-08T06:27:43.689Z,91.28
2018-03-08T06:28:09.165Z,91.28
2018-03-08T06:28:34.658Z,91.28
2018-03-08T06:29:00.179Z,91.09
2018-03-08T06:29:25.635Z,91.28
2018-03-08T06:29:51.092Z,91.09
2018-03-08T06:30:16.561Z,91.09
2018-03-08T06:30:42.015Z,91.19
2018-03-08T06:31:07.476Z,91.28
2018-03-08T06:31:32.959Z,90.9
2018-03-08T06:31:58.428Z,90.9
2018-03-08T06:32:23.942Z,91.38
2018-03-08T06:32:49.407Z,91.09
2018-03-08T06:33:14.911Z,91.19
2018-03-08T06:33:40.385Z,91.09
2018-03-08T06:34:05.846Z,91.28
2018-03-08T06:34:31.298Z,91.28
2018-03-08T06:34:56.806Z,91.28
2018-03-08T06:35:22.318Z,91.28
2018-03-08T06:35:47.828Z,91.09
2018-03-08T06:36:13.319Z,91.09
2018-03-08T06:36:38.800Z,91.09
2018-03-08T06:37:04.268Z,91.28
2018-03-08T06:37:29.728Z,90.52
2018-03-08T06:37:55.227Z,90.81
2018-03-08T06:38:20.725Z,90.9
2018-03-08T06:38:46.205Z,90.9
2018-03-08T06:39:11.701Z,90.71
2018-03-08T06:39:37.199Z,90.62
2018-03-08T06:40:02.650Z,90.81
2018-03-08T06:40:28.130Z,90.52
2018-03-08T06:40:53.584Z,90.9
2018-03-08T06:41:19.063Z,90.9
2018-03-08T06:41:44.525Z,91.38
2018-03-08T06:42:09.977Z,91.19
2018-03-08T06:42:35.458Z,91.09
2018-03-08T06:43:00.917Z,91.09
2018-03-08T06:43:26.408Z,90.9
2018-03-08T06:43:51.909Z,90.43
2018-03-08T06:44:17.361Z,90.71
2018-03-08T06:44:42.824Z,90.81
2018-03-08T06:45:08.326Z,90.81
2018-03-08T06:45:33.853Z,90.71
2018-03-08T06:45:59.394Z,90.62
2018-03-08T06:46:24.869Z,90.62
2018-03-08T06:46:50.383Z,90.62
2018-03-08T06:47:15.837Z,90.62
2018-03-08T06:47:41.328Z,90.62
2018-03-08T06:48:06.813Z,90.9
2018-03-08T06:48:32.249Z,90.71
2018-03-08T06:48:57.737Z,90.81
2018-03-08T06:49:23.203Z,90.81
2018-03-08T06:49:48.716Z,90.43
2018-03-08T06:50:14.183Z,91.19
2018-03-08T06:50:39.637Z,91.19
2018-03-08T06:51:05.125Z,91.09
2018-03-08T06:51:30.588Z,91.09
2018-03-08T06:51:56.131Z,90.9
2018-03-08T06:52:21.609Z,91.09
2018-03-08T06:52:47.097Z,91
2018-03-08T06:53:12.560Z,91.09
2018-03-08T06:53:38.025Z,91.09
2018-03-08T06:54:03.477Z,91.09
2018-03-08T06:54:28.980Z,91.56
2018-03-08T06:54:54.483Z,91.66
2018-03-08T06:55:19.958Z,91.09
2018-03-08T06:55:45.452Z,91.38
2018-03-08T06:56:10.945Z,91.28
2018-03-08T06:56:36.472Z,91.38
2018-03-08T06:57:01.995Z,91.09
2018-03-08T06:57:27.476Z,90.71
2018-03-08T06:57:52.925Z,91.09
2018-03-08T06:58:18.487Z,90.9
2018-03-08T06:58:43.956Z,90.67
2018-03-08T06:59:09.442Z,90.71
2018-03-08T06:59:34.918Z,91.19
2018-03-08T07:00:00.400Z,91.09
2018-03-08T07:00:26.194Z,90.9
2018-03-08T07:00:51.734Z,91.05
2018-03-08T07:01:17.234Z,91.42
2018-03-08T07:01:42.691Z,91.52
2018-03-08T07:02:08.236Z,91
2018-03-08T07:02:33.709Z,92.04
2018-03-08T07:02:59.184Z,91.85
2018-03-08T07:03:24.661Z,91.94
2018-03-08T07:03:50.149Z,91.99
2018-03-08T07:04:15.659Z,91.19
2018-03-08T07:04:41.172Z,91.33
2018-03-08T07:05:06.652Z,91.05
2018-03-08T07:05:32.154Z,91.14
2018-03-08T07:05:57.657Z,91
2018-03-08T07:06:23.128Z,91.33
2018-03-08T07:06:48.645Z,91.33
2018-03-08T07:07:14.127Z,91.33
2018-03-08T07:07:39.630Z,91.56
2018-03-08T07:08:05.170Z,91.47
2018-03-08T07:08:30.677Z,91.71
2018-03-08T07:08:56.198Z,91.33
2018-03-08T07:09:21.692Z,91.52
2018-03-08T07:09:47.210Z,92.14
2018-03-08T07:10:12.649Z,91.94
2018-03-08T07:10:38.144Z,91.66
2018-03-08T07:11:03.614Z,91.19
2018-03-08T07:12:07.230Z,91.47
2018-03-08T07:12:32.727Z,91.38
2018-03-08T07:12:58.221Z,91.38
2018-03-08T07:13:23.714Z,91.47
2018-03-08T07:13:49.195Z,91.47
2018-03-08T07:14:14.640Z,91.38
2018-03-08T07:14:40.108Z,91.28
2018-03-08T07:15:05.578Z,91.56
2018-03-08T07:15:31.077Z,91.28
2018-03-08T07:15:56.588Z,91.56
2018-03-08T07:16:22.099Z,91.19
2018-03-08T07:16:47.571Z,90.81
2018-03-08T07:17:13.091Z,91.09
2018-03-08T07:17:38.569Z,90.71
2018-03-08T07:18:04.069Z,90.05
2018-03-08T07:18:29.584Z,90.14
2018-03-08T07:18:55.049Z,90.33
2018-03-08T07:19:20.582Z,89.95
2018-03-08T07:19:46.034Z,90.33
2018-03-08T07:20:11.567Z,89.86
2018-03-08T07:20:37.061Z,90.05
2018-03-08T07:21:02.565Z,90.05
2018-03-08T07:21:28.035Z,89.76
2018-03-08T07:21:53.550Z,89.58
2018-03-08T07:22:18.998Z,89.2
2018-03-08T07:22:44.537Z,89.48
2018-03-08T07:23:10.053Z,89.29
2018-03-08T07:23:35.513Z,89.39
2018-03-08T07:24:00.983Z,89.29
2018-03-08T07:24:26.517Z,89
2018-03-08T07:24:52.072Z,89
2018-03-08T07:25:17.521Z,88.62
2018-03-08T07:25:42.983Z,89.2
2018-03-08T07:26:08.487Z,89.29
2018-03-08T07:26:33.943Z,88.53
2018-03-08T07:26:59.453Z,88.53
2018-03-08T07:27:24.960Z,89.33
2018-03-08T07:27:50.456Z,89.39
2018-03-08T07:28:16.002Z,89.14
2018-03-08T07:28:41.555Z,88.48
2018-03-08T07:29:07.001Z,88.67
2018-03-08T07:29:32.479Z,88.72
2018-03-08T07:29:57.963Z,88.76
2018-03-08T07:30:23.511Z,88.57
2018-03-08T07:30:48.992Z,88.76
2018-03-08T07:31:14.512Z,88.67
2018-03-08T07:31:39.987Z,87.91
2018-03-08T07:32:05.478Z,87.24
2018-03-08T07:32:30.973Z,87.43
2018-03-08T07:32:56.491Z,87.3
2018-03-08T07:34:00.873Z,87.82
2018-03-08T07:34:26.386Z,87.43
2018-03-08T07:34:51.921Z,87.62
2018-03-08T07:35:17.393Z,88.2
2018-03-08T07:35:42.883Z,87.91
2018-03-08T07:36:08.335Z,87.24
2018-03-08T07:36:33.828Z,87.91
2018-03-08T07:37:37.434Z,87.62
2018-03-08T07:38:02.928Z,87.62
2018-03-08T07:38:28.404Z,87.2
2018-03-08T07:38:53.885Z,86.96
2018-03-08T07:39:19.439Z,86.87
2018-03-08T07:39:45.561Z,87.43
2018-03-08T07:40:11.298Z,87.15
2018-03-08T07:40:36.777Z,87.43
2018-03-08T07:41:02.277Z,87.82
2018-03-08T07:41:27.744Z,87.91
2018-03-08T07:41:53.184Z,88.01
2018-03-08T07:42:18.643Z,87.72
2018-03-08T07:42:44.097Z,87.91
2018-03-08T07:43:09.576Z,87.05
2018-03-08T07:43:35.030Z,86.2
2018-03-08T07:44:00.491Z,86.2
2018-03-08T07:44:25.974Z,86.49
2018-03-08T07:44:51.433Z,86.58
2018-03-08T07:46:05.225Z,86.2
2018-03-08T07:46:30.722Z,86.2
2018-03-08T07:46:56.182Z,86.01
2018-03-08T07:47:21.657Z,86.87
2018-03-08T07:47:47.152Z,86.49
2018-03-08T07:48:12.584Z,86.58
2018-03-08T07:48:38.102Z,86.68
2018-03-08T07:49:03.610Z,86.77
2018-03-08T07:49:29.071Z,86.77
2018-03-08T07:49:54.528Z,87.05
2018-03-08T07:50:20.073Z,86.87
2018-03-08T07:50:45.498Z,87.24
2018-03-08T07:51:10.981Z,87.24
2018-03-08T07:51:36.466Z,87.24
2018-03-08T07:52:02.053Z,86.96
2018-03-08T07:52:27.393Z,87.15
2018-03-08T07:52:52.865Z,87.53
2018-03-08T07:53:18.354Z,87.43
2018-03-08T07:53:43.874Z,86.96
2018-03-08T07:54:09.365Z,87.43
2018-03-08T07:54:34.850Z,87.05
2018-03-08T07:55:00.329Z,86.87
2018-03-08T07:55:25.846Z,86.77
2018-03-08T07:55:51.348Z,87.15
2018-03-08T07:56:16.844Z,86.77
2018-03-08T07:56:42.334Z,87.05
2018-03-08T07:57:07.839Z,87.24
2018-03-08T07:57:33.305Z,87.05
2018-03-08T07:57:58.804Z,86.58
2018-03-08T07:58:24.327Z,86.49
2018-03-08T07:58:49.823Z,86.96
2018-03-08T07:59:15.316Z,86.58
2018-03-08T07:59:40.805Z,86.39
2018-03-08T08:00:06.272Z,86.11
2018-03-08T08:00:31.808Z,86.58
2018-03-08T08:00:57.301Z,86.01
2018-03-08T08:01:22.815Z,85.91
2018-03-08T08:01:48.307Z,85.91
2018-03-08T08:02:13.810Z,85.72
2018-03-08T08:02:39.298Z,86.01
2018-03-08T08:03:04.810Z,85.91
2018-03-08T08:03:30.304Z,86.01
2018-03-08T08:03:55.795Z,85.91
2018-03-08T08:04:21.280Z,86.68
2018-03-08T08:04:46.796Z,86.01
2018-03-08T08:05:12.281Z,85.63
2018-03-08T08:05:37.754Z,86.11
2018-03-08T08:06:03.253Z,85.53
2018-03-08T08:06:28.755Z,85.35
2018-03-08T08:06:54.269Z,85.35
2018-03-08T08:07:19.801Z,85.44
2018-03-08T08:07:45.234Z,85.44
2018-03-08T08:08:10.719Z,85.53
2018-03-08T08:08:36.254Z,85.53
2018-03-08T08:09:01.778Z,85.53
2018-03-08T08:09:27.262Z,85.72
2018-03-08T08:09:52.772Z,85.72
2018-03-08T08:10:18.282Z,86.01
2018-03-08T08:10:43.754Z,85.91
2018-03-08T08:11:09.342Z,85.25
2018-03-08T08:11:34.788Z,84.78
2018-03-08T08:12:00.264Z,84.87
2018-03-08T08:12:25.751Z,85.06
2018-03-08T08:12:51.230Z,84.49
2018-03-08T08:13:16.695Z,84.21
2018-03-08T08:14:10.138Z,85.06
2018-03-08T08:14:35.648Z,85.06
2018-03-08T08:15:01.146Z,84.68
2018-03-08T08:15:26.636Z,84.68
2018-03-08T08:15:52.188Z,84.87
2018-03-08T08:16:17.614Z,84.21
2018-03-08T08:16:43.123Z,84.01
2018-03-08T08:17:08.559Z,84.87
2018-03-08T08:17:34.064Z,84.78
2018-03-08T08:17:59.538Z,84.97
2018-03-08T08:18:25.003Z,84.4
2018-03-08T08:18:50.497Z,85.25
2018-03-08T08:19:16.001Z,84.49
2018-03-08T08:20:09.437Z,84.97
2018-03-08T08:20:34.930Z,84.97
2018-03-08T08:21:00.451Z,84.49
2018-03-08T08:21:25.917Z,84.3
2018-03-08T08:21:51.394Z,84.01
2018-03-08T08:22:16.885Z,83.54
2018-03-08T08:22:42.400Z,83.73
2018-03-08T08:23:07.902Z,83.92
2018-03-08T08:23:33.409Z,84.49
2018-03-08T08:23:58.911Z,84.59
2018-03-08T08:24:24.377Z,84.3
2018-03-08T08:24:49.866Z,84.21
2018-03-08T08:25:15.357Z,84.11
2018-03-08T08:25:40.851Z,84.4
2018-03-08T08:26:06.365Z,83.92
2018-03-08T08:26:31.885Z,83.45
2018-03-08T08:26:57.402Z,84.01
2018-03-08T08:27:22.913Z,84.16
2018-03-08T08:27:48.388Z,84.25
2018-03-08T08:28:13.903Z,83.36
2018-03-08T08:28:39.375Z,83.59
2018-03-08T08:29:04.839Z,83.49
2018-03-08T08:29:30.331Z,83.78
2018-03-08T08:29:55.820Z,83.59
2018-03-08T08:30:21.299Z,83.49
2018-03-08T08:30:46.812Z,83.59
2018-03-08T08:31:12.308Z,83.68
2018-03-08T08:31:37.775Z,83.49
2018-03-08T08:32:03.272Z,83.49
2018-03-08T08:32:28.755Z,83.3
2018-03-08T08:32:54.250Z,82.92
2018-03-08T08:33:19.753Z,83.11
2018-03-08T08:33:45.211Z,83.39
2018-03-08T08:34:10.721Z,83.3
2018-03-08T08:35:14.256Z,83.39
2018-03-08T08:35:39.775Z,83.11
2018-03-08T08:36:05.301Z,83.11
2018-03-08T08:36:30.790Z,83.3
2018-03-08T08:36:56.277Z,82.82
2018-03-08T08:37:21.776Z,82.16
2018-03-08T08:37:47.274Z,82.16
2018-03-08T08:38:12.779Z,82.26
2018-03-08T08:38:38.275Z,82.64
2018-03-08T08:39:03.806Z,82.73
2018-03-08T08:39:29.309Z,83.3
2018-03-08T08:39:54.799Z,82.92
2018-03-08T08:40:20.264Z,82.73
2018-03-08T08:40:45.758Z,82.26
2018-03-08T08:41:11.233Z,82.54
2018-03-08T08:41:36.731Z,82.26
2018-03-08T08:42:02.229Z,82.35
2018-03-08T08:42:27.732Z,82.64
2018-03-08T08:42:53.246Z,82.26
2018-03-08T08:43:18.778Z,81.21
2018-03-08T08:43:44.259Z,81.02
2018-03-08T08:44:09.744Z,80.55
2018-03-08T08:44:35.255Z,80.64
2018-03-08T08:45:00.748Z,80.45
2018-03-08T08:45:26.229Z,80.26
2018-03-08T08:45:51.725Z,81.12
2018-03-08T08:46:17.249Z,81.25
2018-03-08T08:46:42.771Z,80.87
2018-03-08T08:47:08.245Z,81.06
2018-03-08T08:47:33.706Z,80.93
2018-03-08T08:47:59.181Z,81.16
2018-03-08T08:48:24.678Z,80.68
2018-03-08T08:48:50.173Z,80.49
2018-03-08T08:49:15.656Z,80.49
2018-03-08T08:49:41.142Z,80.58
2018-03-08T08:50:06.612Z,81.06
2018-03-08T08:50:32.079Z,81.44
2018-03-08T08:50:57.539Z,81.25
2018-03-08T08:51:23.049Z,80.49
2018-03-08T08:51:48.518Z,80.58
2018-03-08T08:52:14.019Z,80.02
2018-03-08T08:52:39.537Z,79.92
2018-03-08T08:53:05.046Z,79.73
2018-03-08T08:53:30.566Z,79.83
2018-03-08T08:53:56.041Z,79.92
2018-03-08T08:54:21.529Z,79.63
2018-03-08T08:54:47.005Z,79.54
2018-03-08T08:55:12.497Z,79.63
2018-03-08T08:55:37.985Z,79.92
2018-03-08T08:56:03.500Z,80.02
2018-03-08T08:56:29.029Z,80.49
2018-03-08T08:56:54.513Z,80.49
2018-03-08T08:57:19.990Z,80.49
2018-03-08T08:57:45.452Z,79.92
2018-03-08T08:58:10.909Z,80.11
2018-03-08T08:58:36.380Z,79.44
2018-03-08T08:59:01.875Z,79.54
2018-03-08T08:59:27.385Z,78.88
2018-03-08T08:59:52.876Z,79.16
2018-03-08T09:00:18.371Z,79.06
2018-03-08T09:00:43.882Z,78.69
2018-03-08T09:01:09.393Z,78.97
2018-03-08T09:01:34.856Z,79.16
2018-03-08T09:02:00.347Z,78.88
2018-03-08T09:02:25.829Z,79.25
2018-03-08T09:02:51.360Z,79.58
2018-03-08T09:03:16.877Z,80.05
2018-03-08T09:03:42.371Z,79.3
2018-03-08T09:04:07.887Z,78.91
2018-03-08T09:04:33.351Z,79.2
2018-03-08T09:04:58.860Z,78.16
2018-03-08T09:05:24.396Z,78.25
2018-03-08T09:05:49.906Z,77.97
2018-03-08T09:06:15.383Z,78.34
2018-03-08T09:07:24.105Z,78.53
2018-03-08T09:07:49.584Z,78.53
2018-03-08T09:08:15.121Z,78.82
2018-03-08T09:08:40.621Z,79.39
2018-03-08T09:09:06.125Z,79.58
2018-03-08T09:09:31.671Z,79.39
2018-03-08T09:09:57.283Z,79.58
2018-03-08T09:10:22.766Z,79.58
2018-03-08T09:10:48.268Z,78.72
2018-03-08T09:11:13.773Z,79.49
2018-03-08T09:11:39.264Z,79.11
2018-03-08T09:12:04.780Z,78.34
2018-03-08T09:12:30.266Z,78.34
2018-03-08T09:12:55.756Z,78.44
2018-03-08T09:13:21.214Z,78.44
2018-03-08T09:13:46.736Z,78.53
2018-03-08T09:14:12.217Z,78.91
2018-03-08T09:14:37.716Z,79.2
2018-03-08T09:15:03.210Z,78.82
2018-03-08T09:15:28.703Z,78.53
2018-03-08T09:15:54.202Z,77.87
2018-03-08T09:16:27.642Z,77.97
2018-03-08T09:16:53.137Z,78.34
2018-03-08T09:17:18.623Z,78.16
2018-03-08T09:17:44.113Z,78.25
2018-03-08T09:18:09.573Z,78.25
2018-03-08T09:18:35.065Z,78.1
2018-03-08T09:19:00.543Z,78.25
2018-03-08T09:19:26.020Z,78.48
2018-03-08T09:19:51.803Z,78.38
2018-03-08T09:20:17.251Z,77.91
2018-03-08T09:21:25.968Z,77.43
2018-03-08T09:21:51.394Z,77.15
2018-03-08T09:22:16.879Z,77.34
2018-03-08T09:22:42.351Z,76.96
2018-03-08T09:23:07.851Z,77.53
2018-03-08T09:23:33.349Z,77.15
2018-03-08T09:23:58.825Z,77.43
2018-03-08T09:24:24.333Z,77.34
2018-03-08T09:24:49.788Z,76.96
2018-03-08T09:25:15.277Z,76.48
2018-03-08T09:25:40.774Z,76.1
2018-03-08T09:26:06.288Z,76.1
2018-03-08T09:26:31.763Z,76.76
2018-03-08T09:26:57.257Z,77.53
2018-03-08T09:27:22.776Z,77.15
2018-03-08T09:27:48.314Z,77.53
2018-03-08T09:28:13.774Z,77.53
2018-03-08T09:28:39.258Z,77.24
2018-03-08T09:29:04.743Z,77.53
2018-03-08T09:29:30.240Z,77.53
2018-03-08T09:29:55.772Z,77.15
2018-03-08T09:30:21.208Z,76.86
2018-03-08T09:30:46.689Z,77.43
2018-03-08T09:31:12.319Z,77.05
2018-03-08T09:31:37.742Z,76.39
2018-03-08T09:32:03.239Z,76.76
2018-03-08T09:32:28.708Z,77.05
2018-03-08T09:32:54.308Z,76.57
2018-03-08T09:33:19.724Z,76.2
2018-03-08T09:33:45.225Z,76.48
2018-03-08T09:34:10.736Z,76.1
2018-03-08T09:34:36.155Z,76.76
2018-03-08T09:35:01.659Z,77.15
2018-03-08T09:35:27.090Z,77.43
2018-03-08T09:35:52.562Z,77.15
2018-03-08T09:36:18.013Z,77.24
2018-03-08T09:36:43.487Z,77.34
2018-03-08T09:37:09.001Z,77.34
2018-03-08T09:37:34.497Z,77.24
2018-03-08T09:37:59.950Z,77.15
2018-03-08T09:38:25.448Z,77.15
2018-03-08T09:38:50.972Z,76.96
2018-03-08T09:39:16.403Z,76.01
2018-03-08T09:39:41.882Z,75.81
2018-03-08T09:40:07.375Z,76.57
2018-03-08T09:40:32.824Z,75.81
2018-03-08T09:40:58.357Z,75.81
2018-03-08T09:41:23.879Z,75.81
2018-03-08T09:41:49.403Z,76.48
2018-03-08T09:42:14.879Z,76.67
2018-03-08T09:42:40.367Z,76.48
2018-03-08T09:43:05.845Z,75.81
2018-03-08T09:43:31.317Z,75.72
2018-03-08T09:43:56.828Z,75.91
2018-03-08T09:44:22.348Z,76.01
2018-03-08T09:44:47.873Z,75.85
2018-03-08T09:45:13.339Z,76.04
2018-03-08T09:45:38.798Z,76.04
2018-03-08T09:46:04.339Z,75.38
2018-03-08T09:46:29.829Z,75.09
2018-03-08T09:46:55.297Z,74.99
2018-03-08T09:47:20.811Z,75.19
2018-03-08T09:47:46.337Z,75.38
2018-03-08T09:48:39.800Z,75.47
2018-03-08T09:49:05.285Z,75.38
2018-03-08T09:49:30.778Z,75.76
2018-03-08T09:49:56.302Z,75.67
2018-03-08T09:50:21.793Z,75.85
2018-03-08T09:50:47.238Z,74.8
2018-03-08T09:51:12.726Z,74.8
2018-03-08T09:51:38.193Z,74.71
2018-03-08T09:52:03.677Z,74.62
2018-03-08T09:52:29.217Z,75.09
2018-03-08T09:52:54.690Z,75.28
2018-03-08T09:53:20.211Z,75.95
2018-03-08T09:53:45.714Z,74.71
2018-03-08T09:54:11.187Z,74.62
2018-03-08T09:54:36.711Z,74.71
2018-03-08T09:55:02.190Z,74.52
2018-03-08T09:55:27.681Z,74.9
2018-03-08T09:55:53.151Z,74.14
2018-03-08T09:56:18.692Z,74.43
2018-03-08T09:56:44.173Z,74.52
2018-03-08T09:57:09.674Z,74.71
2018-03-08T09:57:35.167Z,74.33
2018-03-08T09:58:00.670Z,73.38
2018-03-08T09:58:26.165Z,73.1
2018-03-08T09:58:51.657Z,73.19
2018-03-08T09:59:17.163Z,73.38
2018-03-08T09:59:42.639Z,73.47
2018-03-08T10:00:08.124Z,73.57
2018-03-08T10:00:33.616Z,73.95
2018-03-08T10:00:59.117Z,74.71
2018-03-08T10:01:24.582Z,74.8
2018-03-08T10:01:50.085Z,74.37
2018-03-08T10:02:15.570Z,73.19
2018-03-08T10:02:41.106Z,73.13
2018-03-08T10:03:06.638Z,73.41
2018-03-08T10:03:32.125Z,72.85
2018-03-08T10:03:57.636Z,72.85
2018-03-08T10:04:23.113Z,72.85
2018-03-08T10:04:48.597Z,72.75
2018-03-08T10:05:14.087Z,72.56
2018-03-08T10:05:39.576Z,73.03
2018-03-08T10:06:05.038Z,72.56
2018-03-08T10:06:30.505Z,72.17
2018-03-08T10:06:56.000Z,71.89
2018-03-08T10:07:21.519Z,72.56
2018-03-08T10:07:46.997Z,73.03
2018-03-08T10:08:12.516Z,73.32
2018-03-08T10:08:37.987Z,72.75
2018-03-08T10:09:03.449Z,72.94
2018-03-08T10:09:28.973Z,72.46
2018-03-08T10:09:54.433Z,73.13
2018-03-08T10:10:19.926Z,72.75
2018-03-08T10:10:45.445Z,71.61
2018-03-08T10:11:10.936Z,71.61
2018-03-08T10:11:36.418Z,72.17
2018-03-08T10:12:01.902Z,72.46
2018-03-08T10:12:27.389Z,73.13
2018-03-08T10:12:52.920Z,72.56
2018-03-08T10:13:18.413Z,72.17
2018-03-08T10:13:44.108Z,71.7
2018-03-08T10:14:09.543Z,71.89
2018-03-08T10:14:35.036Z,71.8
2018-03-08T10:15:00.523Z,71.89
2018-03-08T10:15:26.014Z,71.42
2018-03-08T10:15:51.509Z,71.89
2018-03-08T10:16:16.969Z,71.51
2018-03-08T10:16:42.517Z,71.42
2018-03-08T10:17:07.956Z,70.65
2018-03-08T10:17:33.456Z,71.32
2018-03-08T10:17:58.929Z,71.61
2018-03-08T10:18:24.460Z,71.89
2018-03-08T10:18:49.929Z,72.27
2018-03-08T10:19:15.428Z,72.37
2018-03-08T10:19:40.917Z,72.85
2018-03-08T10:20:06.458Z,72.56
2018-03-08T10:20:31.937Z,71.98
2018-03-08T10:20:57.500Z,73.03
2018-03-08T10:21:44.309Z,72.56
2018-03-08T10:21:48.441Z,72.56
2018-03-08T10:22:13.948Z,72.56
2018-03-08T10:22:39.450Z,73.13
2018-03-08T10:23:04.937Z,73.13
2018-03-08T10:23:30.410Z,72.85
2018-03-08T10:23:55.907Z,73.51
2018-03-08T10:24:21.378Z,73.32
2018-03-08T10:24:46.822Z,73.41
2018-03-08T10:25:12.356Z,74.46
2018-03-08T10:25:37.878Z,74.75
2018-03-08T10:26:03.415Z,74.43
2018-03-08T10:26:28.907Z,74.24
2018-03-08T10:26:54.420Z,74.33
2018-03-08T10:27:19.838Z,73.99
2018-03-08T10:27:45.345Z,73.61
2018-03-08T10:28:10.889Z,73.85
2018-03-08T10:28:36.416Z,74.33
2018-03-08T10:29:01.902Z,73.76
2018-03-08T10:29:27.381Z,73.99
2018-03-08T10:29:52.868Z,73.76
2018-03-08T10:30:18.530Z,73.28
2018-03-08T10:30:43.974Z,73.51
2018-03-08T10:31:09.514Z,72.65
2018-03-08T10:31:34.962Z,73.41
2018-03-08T10:32:00.417Z,73
2018-03-08T10:32:25.893Z,74.33
2018-03-08T10:32:51.352Z,74.46
2018-03-08T10:33:16.949Z,74.62
2018-03-08T10:33:42.367Z,74.65
2018-03-08T10:34:07.877Z,74.75
2018-03-08T10:34:33.377Z,74.8
2018-03-08T10:34:58.874Z,74.56
2018-03-08T10:36:02.459Z,74.27
2018-03-08T10:36:28.015Z,74.56
2018-03-08T10:36:53.449Z,74.75
2018-03-08T10:37:18.949Z,74.27
2018-03-08T10:37:44.443Z,74.08
2018-03-08T10:38:09.951Z,74.46
2018-03-08T10:38:35.398Z,74.27
2018-03-08T10:39:00.963Z,74.08
2018-03-08T10:40:55.542Z,73.8